DLH53 LEPA-HEGN
Flight info
| Callsign | DLH53 |
|---|---|
| Flight time | N/A |
| Altitude | 38000 |
| Route | MORSS DCT BAVON DCT ORKUM DCT ELSAG DCT ALG/N0480F390 DCT LEDRO DCT ADAMI DCT ADEXI DCT OLLEK DCT ARLOS DCT SALUN N705 MMA P751 DASUM Y234 FYM M872 SEMRU W727 OBTAV L315 SOKOT SOKOT1A |
| Aircraft | A35K/H-SDE2E3GHIJ3J4J5LM1ORWXY/LB1D1 |
Departure
| Time | 2026-05-04 08:08 |
|---|---|
| Airport | Palma de Mallorca Airport (LEPA) |
Arrival
| Time | N/A |
|---|---|
| Airport | Hurghada International Airport (HEGN) |
| Time | Latitude | Longitude | Altitude | Speed | Heading |
|---|---|---|---|---|---|
| 2026-05-04 07:15 | 39.55524 | 2.73411 | 44 ft | 0 kts | 276° |
| 2026-05-04 07:22 | 39.55523 | 2.73410 | 44 ft | 0 kts | 276° |
| 2026-05-04 08:00 | 39.55523 | 2.73409 | 44 ft | 0 kts | 275° |
| 2026-05-04 08:00 | 39.55520 | 2.73403 | 44 ft | 1 kts | 246° |
| 2026-05-04 08:02 | 39.55514 | 2.73199 | 44 ft | 23 kts | 57° |
| 2026-05-04 08:02 | 39.55606 | 2.73395 | 44 ft | 28 kts | 59° |
| 2026-05-04 08:02 | 39.55713 | 2.73625 | 44 ft | 32 kts | 59° |
| 2026-05-04 08:03 | 39.55833 | 2.73880 | 44 ft | 35 kts | 59° |
| 2026-05-04 08:03 | 39.55962 | 2.74156 | 44 ft | 32 kts | 58° |
| 2026-05-04 08:03 | 39.56086 | 2.74298 | 44 ft | 25 kts | 26° |
| 2026-05-04 08:03 | 39.56225 | 2.74312 | 44 ft | 18 kts | 300° |
| 2026-05-04 08:04 | 39.56194 | 2.74196 | 44 ft | 0 kts | 238° |
| 2026-05-04 08:06 | 39.56176 | 2.74158 | 44 ft | 22 kts | 238° |
| 2026-05-04 08:06 | 39.55956 | 2.73694 | 44 ft | 97 kts | 238° |
| 2026-05-04 08:06 | 39.55483 | 2.72703 | 44 ft | 159 kts | 238° |
| 2026-05-04 08:06 | 39.54833 | 2.71321 | 379 ft | 187 kts | 238° |
| 2026-05-04 08:08 | 39.49120 | 2.60994 | 5399 ft | 220 kts | 212° |
| 2026-05-04 08:08 | 39.47851 | 2.60059 | 5811 ft | 231 kts | 209° |
| 2026-05-04 08:10 | 39.35103 | 2.64154 | 10230 ft | 295 kts | 140° |
| 2026-05-04 08:11 | 39.33810 | 2.65761 | 10494 ft | 308 kts | 139° |
| 2026-05-04 08:11 | 39.30657 | 2.69711 | 11054 ft | 338 kts | 139° |
| 2026-05-04 08:11 | 39.29367 | 2.71837 | 11242 ft | 357 kts | 123° |
| 2026-05-04 08:12 | 39.28649 | 2.74444 | 11484 ft | 374 kts | 102° |
| 2026-05-04 08:12 | 39.28590 | 2.77589 | 11811 ft | 385 kts | 88° |
| 2026-05-04 08:12 | 39.28654 | 2.81083 | 12130 ft | 394 kts | 91° |
| 2026-05-04 08:12 | 39.28683 | 2.84661 | 12498 ft | 402 kts | 91° |
| 2026-05-04 08:13 | 39.28699 | 2.88290 | 12933 ft | 407 kts | 91° |
| 2026-05-04 08:13 | 39.28762 | 2.91951 | 13395 ft | 411 kts | 86° |
| 2026-05-04 08:13 | 39.29419 | 2.95556 | 13864 ft | 416 kts | 66° |
| 2026-05-04 08:13 | 39.30755 | 2.98880 | 14276 ft | 419 kts | 59° |
| 2026-05-04 08:14 | 39.32233 | 3.02136 | 14685 ft | 423 kts | 58° |
| 2026-05-04 08:14 | 39.33729 | 3.05434 | 15090 ft | 427 kts | 58° |
| 2026-05-04 08:14 | 39.35222 | 3.08757 | 15576 ft | 429 kts | 59° |
| 2026-05-04 08:16 | 39.45985 | 3.32757 | 18456 ft | 454 kts | 57° |
| 2026-05-04 08:16 | 39.47615 | 3.36274 | 18785 ft | 457 kts | 57° |
| 2026-05-04 08:16 | 39.49255 | 3.39826 | 19111 ft | 461 kts | 57° |
| 2026-05-04 08:17 | 39.50901 | 3.43402 | 19449 ft | 464 kts | 58° |
| 2026-05-04 08:17 | 39.52557 | 3.47007 | 19793 ft | 467 kts | 58° |
| 2026-05-04 08:17 | 39.54220 | 3.50633 | 20151 ft | 470 kts | 58° |
| 2026-05-04 08:17 | 39.55897 | 3.54295 | 20471 ft | 474 kts | 58° |
| 2026-05-04 08:19 | 39.67084 | 3.78844 | 22627 ft | 494 kts | 58° |
| 2026-05-04 08:19 | 39.68833 | 3.82700 | 22978 ft | 495 kts | 58° |
| 2026-05-04 08:20 | 39.70579 | 3.86555 | 23386 ft | 497 kts | 58° |
| 2026-05-04 08:20 | 39.72336 | 3.90437 | 23660 ft | 500 kts | 58° |
| 2026-05-04 08:20 | 39.74099 | 3.94337 | 23907 ft | 503 kts | 58° |
| 2026-05-04 08:20 | 39.75864 | 3.98248 | 24212 ft | 503 kts | 58° |
| 2026-05-04 08:21 | 39.77641 | 4.02190 | 24509 ft | 506 kts | 59° |
| 2026-05-04 08:21 | 39.79428 | 4.06159 | 24797 ft | 509 kts | 59° |
| 2026-05-04 08:21 | 39.81220 | 4.10145 | 25045 ft | 512 kts | 59° |
| 2026-05-04 08:21 | 39.83016 | 4.14145 | 25304 ft | 514 kts | 59° |
| 2026-05-04 08:22 | 39.84822 | 4.18172 | 25570 ft | 516 kts | 59° |